Monday, December 22, 2014
14:53 UTC
  |  Log In   |  Register Free
Airport Search:

Coleman Municipal Airport
(KCOM)

Coleman Municipal Airport Diagram
No Airport Diagram Available

FAA data valid effective November 13, 2014 - January 08, 2015 (unless otherwise noted).

 
 
 
 
 
 
 
 
 
 
 
 
 
 

Current Aviation Weather for Coleman Municipal Airport (KCOM)

The most recent METAR observation for KCOM was updated at: 2112
METAR Summary (Translated METAR)
KCOM
182055Z AUTO 00000KT 10SM CLR 18/05 A3005 RMK AO2 T01820054
KBWD
182055Z AUTO 34004KT 10SM CLR 18/05 A3005 RMK AO2
(23 nm SE from KCOM)
KABI
182052Z 34006KT 10SM CLR 17/01 A3006 RMK AO2 SLP170 T01670011 56021
(37 nm NW from KCOM)
TAF Summary (Translated TAF)
KABI
(37 nm NW from KCOM)
221136Z 2212/2312 25012KT P6SM SCT250 FM221800 36012G20KT P6SM SCT250 FM222300 VRB05KT P6SM BKN250 FM230900 03011KT P6SM -RA BKN070
  Airport Weather Conditions for KCOM

 Current Weather at COM
51° F
Fair
Southwest winds at 11.5 mph
COM NOAA Radar

Pressure: 29.67 in
Humidity: 77%
Wind: Southwest at 11.5 MPH (10 KT)
Dew Point: 43.7°F
Visibility: 10.00 mi


Airport Weather Forecast for KCOM

Translated METAR and TAF for KCOM
Translated METAR for KCOM (1454 UTC 22 December 2014)
found at http://aviationweather.gov/adds/metars/
 
METAR text: KCOM 221435Z AUTO 25010G16KT 10SM CLR 11/06 A2968 RMK AO2 T01140060
Conditions at: KCOM (COLEMAN MUNI , TX, US) observed 1435 UTC 22 December 2014
Temperature: 11.4°C (53°F)
Dewpoint: 6.0°C (43°F) [RH = 69%]
Pressure (altimeter): 29.68 inches Hg (1005.2 mb)
Winds: from the WSW (250 degrees) at 12 MPH (10 knots; 5.2 m/s)
gusting to 18 MPH (16 knots; 8.3 m/s)
Visibility: 10 or more miles (16+ km)
Ceiling: at least 12,000 feet AGL
Clouds: sky clear below 12,000 feet AGL
Weather: automated observation with no human augmentation;
there may or may not be significant weather present at this time
Translated TAF for KCOM

There is no translated TAF available for this airport

Find All Airport Services Find A Hotel Find A Rental Car Find A Golf Course Find A Restaurant $100 Hamburger



FBO's on the Field
FBO Company Facility Photos Services Transportation Aviation Fuel Prices: Prices include tax
Catering Weather Repair Courtesy Rental Type 100LL JetA JetA+ MOGAS 8087
 
Add another FBO Facility Photos Catering Weather Repair Courtesy Rental Type 100LL JetA JetA+ MOGAS 8087
Services Transportation Aviation Fuel Prices: Prices include tax
There are no FBO's currently reporting fuel at COM. List your FBO now


model-print
model-print
model-print
model-print